Weather at Headingly Airport

Public forecast

Using degrees Celsius for public forecast. Weather courtesy of forecast.io.

Closest aviation weather report (METAR) to Headingly Airport

Closest report is Mount Isa Airport, 78.6 nm (145.6 km) ENE. Retrieved 2021/06/20 09:30 UTC (0 seconds ago):

YBMA 200930Z AUTO 16006KT 9999 // NCD 16/M02 Q1019 RF000/0000

Closest aviation forecast (TAF) to Headingly Airport

Closest forecast is Mount Isa Airport, 78.6 nm (145.6 km) ENE. Retrieved 2021/06/20 06:03 UTC (3 hours ago):

TAF TAF YBMA 200409Z 2006/2018 10005KT CAVOK FM201000 VRB05KT CAVOK